Time;durP1;ratioP1;P1;durP2;ratioP2;P2;SDS_P1;SDS_P2;PMS_P1;PMS_P2;Temp;Humidity;BMP_temperature;BMP_pressure;BME280_temperature;BME280_humidity;BME280_pressure;Samples;Min_cycle;Max_cycle;Signal;HPM_P1;HPM_P2
2024/01/26 00:01:00;;;;;;;344.33;130.63;;;;;;;;;;5031194;28;20264;-61
2024/01/26 00:03:26;;;;;;;364.00;138.70;;;;;;;;;;5029767;28;20293;-60
2024/01/26 00:05:52;;;;;;;467.03;175.03;;;;;;;;;;5034281;28;20188;-60
2024/01/26 00:08:18;;;;;;;374.37;142.93;;;;;;;;;;5029262;28;20179;-60
2024/01/26 00:10:44;;;;;;;332.67;128.00;;;;;;;;;;5033127;28;20179;-60
2024/01/26 00:13:10;;;;;;;391.50;148.40;;;;;;;;;;5033285;28;20283;-60
2024/01/26 00:15:36;;;;;;;329.30;128.33;;;;;;;;;;5029497;28;20254;-60
2024/01/26 00:18:03;;;;;;;356.13;135.60;;;;;;;;;;5032341;28;20200;-61
2024/01/26 00:20:29;;;;;;;361.47;134.20;;;;;;;;;;5025262;28;20211;-61
2024/01/26 00:22:55;;;;;;;335.00;131.53;;;;;;;;;;5027742;28;20208;-61
2024/01/26 00:25:21;;;;;;;342.87;133.10;;;;;;;;;;5024412;28;22415;-60
2024/01/26 00:27:47;;;;;;;349.93;139.97;;;;;;;;;;5022465;28;20278;-60
2024/01/26 00:30:13;;;;;;;406.73;154.17;;;;;;;;;;5026304;28;20588;-61
2024/01/26 00:32:39;;;;;;;393.27;146.37;;;;;;;;;;5030340;28;20207;-60
2024/01/26 00:35:06;;;;;;;367.20;140.20;;;;;;;;;;5030385;28;20180;-60
2024/01/26 00:37:32;;;;;;;351.43;134.37;;;;;;;;;;5033161;28;20860;-60
2024/01/26 00:39:58;;;;;;;310.23;124.97;;;;;;;;;;5024669;28;20219;-60
2024/01/26 00:42:23;;;;;;;374.23;143.47;;;;;;;;;;5028939;28;20207;-60
2024/01/26 00:44:49;;;;;;;328.97;128.73;;;;;;;;;;5031659;28;20264;-60
2024/01/26 00:47:15;;;;;;;381.93;140.80;;;;;;;;;;5022224;28;20185;-60
2024/01/26 00:49:41;;;;;;;357.47;136.27;;;;;;;;;;5034095;28;20184;-60
2024/01/26 00:52:07;;;;;;;434.00;162.90;;;;;;;;;;5028735;28;20555;-60
2024/01/26 00:54:33;;;;;;;384.63;143.00;;;;;;;;;;5025843;28;20195;-60
2024/01/26 00:56:59;;;;;;;359.83;137.07;;;;;;;;;;5031967;28;20206;-60
2024/01/26 00:59:25;;;;;;;350.80;135.30;;;;;;;;;;5027575;28;20207;-61
2024/01/26 01:01:51;;;;;;;374.47;142.13;;;;;;;;;;5025764;28;20212;-60
2024/01/26 01:04:17;;;;;;;383.50;145.07;;;;;;;;;;5032823;28;20337;-60
2024/01/26 01:06:43;;;;;;;376.30;142.83;;;;;;;;;;5027475;28;20222;-60
2024/01/26 01:09:09;;;;;;;416.93;154.03;;;;;;;;;;5029692;28;20192;-61
2024/01/26 01:11:35;;;;;;;403.53;147.20;;;;;;;;;;5025725;28;20195;-60
2024/01/26 01:14:01;;;;;;;405.37;147.17;;;;;;;;;;5029856;28;20200;-60
2024/01/26 01:16:28;;;;;;;397.07;145.23;;;;;;;;;;5022865;28;20229;-60
2024/01/26 01:18:54;;;;;;;385.63;142.60;;;;;;;;;;5028349;28;20404;-60
2024/01/26 01:21:20;;;;;;;396.57;145.47;;;;;;;;;;5029791;28;20256;-60
2024/01/26 01:23:46;;;;;;;388.43;145.33;;;;;;;;;;5027596;28;20286;-60
2024/01/26 01:26:12;;;;;;;419.10;156.23;;;;;;;;;;5032667;28;20337;-60
2024/01/26 01:28:38;;;;;;;376.40;142.40;;;;;;;;;;5026950;28;20616;-60
2024/01/26 01:31:04;;;;;;;365.33;137.43;;;;;;;;;;5025612;28;20192;-60
2024/01/26 01:33:30;;;;;;;401.70;151.17;;;;;;;;;;5017088;28;20661;-60
2024/01/26 01:35:56;;;;;;;400.43;151.53;;;;;;;;;;5023653;28;20307;-60
2024/01/26 01:38:22;;;;;;;392.40;150.27;;;;;;;;;;5029242;28;20248;-60
2024/01/26 01:40:48;;;;;;;399.43;152.60;;;;;;;;;;5013980;28;20188;-60
2024/01/26 01:43:17;;;;;;;426.23;158.67;;;;;;;;;;5018791;28;20214;-60
2024/01/26 01:45:43;;;;;;;395.33;149.10;;;;;;;;;;5023282;28;20356;-60
2024/01/26 01:48:09;;;;;;;418.40;156.87;;;;;;;;;;5031707;28;20188;-60
2024/01/26 01:50:44;;;;;;;291.23;115.60;;;;;;;;;;5036924;28;20188;-60
2024/01/26 01:53:11;;;;;;;413.63;152.67;;;;;;;;;;5036061;28;20209;-61
2024/01/26 01:55:38;;;;;;;363.17;138.30;;;;;;;;;;5037795;28;20574;-60
2024/01/26 01:58:05;;;;;;;384.03;147.37;;;;;;;;;;5035970;28;20250;-60
2024/01/26 02:00:32;;;;;;;325.77;128.80;;;;;;;;;;5024426;28;20442;-60
2024/01/26 02:02:58;;;;;;;426.70;156.97;;;;;;;;;;5032464;28;20291;-60
2024/01/26 02:05:24;;;;;;;372.30;139.20;;;;;;;;;;5034577;28;20643;-60
2024/01/26 02:07:50;;;;;;;410.43;156.10;;;;;;;;;;5036302;28;20189;-60
2024/01/26 02:10:16;;;;;;;397.50;152.40;;;;;;;;;;5029913;28;20184;-60
2024/01/26 02:12:42;;;;;;;428.80;159.93;;;;;;;;;;5034570;28;20257;-60
2024/01/26 02:15:08;;;;;;;387.47;144.73;;;;;;;;;;5026820;28;20187;-60
2024/01/26 02:17:36;;;;;;;359.67;134.40;;;;;;;;;;5031792;28;20277;-60
2024/01/26 02:20:03;;;;;;;367.03;140.60;;;;;;;;;;5012350;28;20699;-60
2024/01/26 02:22:30;;;;;;;415.17;157.53;;;;;;;;;;5025347;28;20265;-60
2024/01/26 02:24:55;;;;;;;416.50;156.00;;;;;;;;;;5030067;28;20191;-60
2024/01/26 02:27:22;;;;;;;393.40;152.87;;;;;;;;;;5031318;28;20184;-60
2024/01/26 02:29:48;;;;;;;332.97;132.33;;;;;;;;;;5031090;28;20594;-60
2024/01/26 02:32:14;;;;;;;371.57;142.13;;;;;;;;;;5024441;28;20185;-60
2024/01/26 02:34:40;;;;;;;388.93;147.30;;;;;;;;;;5037861;28;20736;-60
2024/01/26 02:37:06;;;;;;;350.17;133.83;;;;;;;;;;5030546;28;20298;-60
2024/01/26 02:39:35;;;;;;;370.70;140.57;;;;;;;;;;5033724;28;20317;-60
2024/01/26 02:42:01;;;;;;;390.37;143.83;;;;;;;;;;5029312;28;20204;-60
2024/01/26 02:44:27;;;;;;;468.90;173.33;;;;;;;;;;5026357;28;20298;-61
2024/01/26 02:46:53;;;;;;;344.10;130.27;;;;;;;;;;5036157;28;20176;-60
2024/01/26 02:49:19;;;;;;;399.60;150.87;;;;;;;;;;5029603;28;20269;-60
2024/01/26 02:51:45;;;;;;;328.73;127.20;;;;;;;;;;5036083;28;20204;-60
2024/01/26 02:54:11;;;;;;;327.50;128.20;;;;;;;;;;5039789;28;20196;-60
2024/01/26 02:56:37;;;;;;;328.50;127.40;;;;;;;;;;5031036;28;20198;-61
2024/01/26 02:59:03;;;;;;;355.07;136.40;;;;;;;;;;5030336;28;20261;-61
2024/01/26 03:01:29;;;;;;;381.70;144.53;;;;;;;;;;5028380;28;20191;-61
2024/01/26 03:03:55;;;;;;;350.93;134.27;;;;;;;;;;5039836;28;20254;-61
2024/01/26 03:06:21;;;;;;;390.57;143.37;;;;;;;;;;5038093;28;21003;-60
2024/01/26 03:08:47;;;;;;;353.33;135.27;;;;;;;;;;5035015;28;20222;-61
2024/01/26 03:11:13;;;;;;;330.33;126.33;;;;;;;;;;5028711;28;20639;-61
2024/01/26 03:13:42;;;;;;;320.17;123.13;;;;;;;;;;5036905;28;20199;-61
2024/01/26 03:16:08;;;;;;;339.83;129.20;;;;;;;;;;5024207;28;20596;-61
2024/01/26 03:18:34;;;;;;;398.67;149.20;;;;;;;;;;5021948;28;20638;-61
2024/01/26 03:21:01;;;;;;;380.30;145.33;;;;;;;;;;5035213;28;20223;-61
2024/01/26 03:23:27;;;;;;;342.67;132.97;;;;;;;;;;5037374;28;20226;-60
2024/01/26 03:25:53;;;;;;;333.37;126.73;;;;;;;;;;5033412;28;20177;-61
2024/01/26 03:28:19;;;;;;;376.27;145.07;;;;;;;;;;5031626;28;20218;-61
2024/01/26 03:30:45;;;;;;;322.47;124.00;;;;;;;;;;5025197;28;20675;-61
2024/01/26 03:33:11;;;;;;;387.47;144.73;;;;;;;;;;5033868;28;20212;-60
2024/01/26 03:35:37;;;;;;;351.37;132.43;;;;;;;;;;5020877;28;20192;-61
2024/01/26 03:38:03;;;;;;;361.57;133.80;;;;;;;;;;5029962;28;20216;-61
2024/01/26 03:40:29;;;;;;;372.60;137.53;;;;;;;;;;5029875;28;20191;-60
2024/01/26 03:42:55;;;;;;;339.47;126.00;;;;;;;;;;5029930;28;20208;-60
2024/01/26 03:45:21;;;;;;;419.60;153.40;;;;;;;;;;5026875;28;20184;-61
2024/01/26 03:47:47;;;;;;;358.63;139.73;;;;;;;;;;5030592;28;20551;-60
2024/01/26 03:50:13;;;;;;;388.70;144.13;;;;;;;;;;5030605;28;20244;-61
2024/01/26 03:52:39;;;;;;;406.30;157.73;;;;;;;;;;5030985;28;20204;-61
2024/01/26 03:55:08;;;;;;;359.27;132.40;;;;;;;;;;5026983;28;20561;-61
2024/01/26 03:57:35;;;;;;;351.67;127.37;;;;;;;;;;5031048;28;20693;-61
2024/01/26 04:00:01;;;;;;;352.77;129.30;;;;;;;;;;5025052;28;20180;-61
2024/01/26 04:02:27;;;;;;;406.00;153.17;;;;;;;;;;5024920;28;20299;-60
2024/01/26 04:04:53;;;;;;;363.60;140.20;;;;;;;;;;5029031;28;20514;-61
2024/01/26 04:07:19;;;;;;;369.77;140.07;;;;;;;;;;5034832;28;20202;-61
2024/01/26 04:09:45;;;;;;;305.80;119.33;;;;;;;;;;5035310;28;20573;-61
2024/01/26 04:12:11;;;;;;;375.90;142.63;;;;;;;;;;5028552;28;20192;-60
2024/01/26 04:14:37;;;;;;;316.53;124.30;;;;;;;;;;5029964;28;20680;-61
2024/01/26 04:17:03;;;;;;;423.43;152.23;;;;;;;;;;5024831;28;20512;-61
2024/01/26 04:19:29;;;;;;;350.87;133.07;;;;;;;;;;5025252;28;20236;-61
2024/01/26 04:21:55;;;;;;;407.90;150.03;;;;;;;;;;5030307;28;20184;-61
2024/01/26 04:24:21;;;;;;;361.57;136.00;;;;;;;;;;5028107;28;20749;-61
2024/01/26 04:26:46;;;;;;;379.83;139.80;;;;;;;;;;5019734;28;20241;-61
2024/01/26 04:29:12;;;;;;;326.47;125.83;;;;;;;;;;5029992;28;20272;-61
2024/01/26 04:31:44;;;;;;;346.97;129.67;;;;;;;;;;5031850;28;20267;-60
2024/01/26 04:34:11;;;;;;;390.00;143.77;;;;;;;;;;5031003;28;20702;-61
2024/01/26 04:36:37;;;;;;;342.00;128.70;;;;;;;;;;5033019;28;20191;-61
2024/01/26 04:39:03;;;;;;;345.87;128.87;;;;;;;;;;5039705;28;20211;-60
2024/01/26 04:41:29;;;;;;;370.93;137.17;;;;;;;;;;5023750;28;20883;-61
2024/01/26 04:43:55;;;;;;;332.47;129.77;;;;;;;;;;5024749;28;20689;-61
2024/01/26 04:46:21;;;;;;;478.53;171.63;;;;;;;;;;5024982;28;20292;-61
2024/01/26 04:48:47;;;;;;;310.73;120.70;;;;;;;;;;5035307;28;20282;-61
2024/01/26 04:51:13;;;;;;;346.10;129.20;;;;;;;;;;5030466;28;20190;-60
2024/01/26 04:53:39;;;;;;;328.80;123.37;;;;;;;;;;5036562;28;20207;-61
2024/01/26 04:56:05;;;;;;;396.20;140.50;;;;;;;;;;5028916;28;20212;-61
2024/01/26 04:58:31;;;;;;;346.63;132.53;;;;;;;;;;5024568;28;20243;-61
2024/01/26 05:00:57;;;;;;;306.97;120.13;;;;;;;;;;5031037;28;20183;-61
2024/01/26 05:03:23;;;;;;;421.00;149.47;;;;;;;;;;5026924;28;20291;-61
2024/01/26 05:05:50;;;;;;;311.10;121.03;;;;;;;;;;5031062;28;20270;-61
2024/01/26 05:08:16;;;;;;;362.10;134.07;;;;;;;;;;5028202;28;20242;-61
2024/01/26 05:10:42;;;;;;;333.57;125.30;;;;;;;;;;5027863;28;20184;-61
2024/01/26 05:13:09;;;;;;;329.87;127.60;;;;;;;;;;5031965;28;20239;-61
2024/01/26 05:15:36;;;;;;;305.97;125.17;;;;;;;;;;5027364;28;20185;-60
2024/01/26 05:18:03;;;;;;;343.03;127.87;;;;;;;;;;5028061;28;20250;-60
2024/01/26 05:20:30;;;;;;;348.10;132.23;;;;;;;;;;5034196;28;20443;-60
2024/01/26 05:22:56;;;;;;;341.27;126.13;;;;;;;;;;5031770;28;20192;-60
2024/01/26 05:25:22;;;;;;;336.53;125.73;;;;;;;;;;5026606;28;20183;-61
2024/01/26 05:27:48;;;;;;;351.47;133.03;;;;;;;;;;5028614;28;20718;-61
2024/01/26 05:30:14;;;;;;;373.33;138.27;;;;;;;;;;5027958;28;20254;-61
2024/01/26 05:32:40;;;;;;;300.43;118.80;;;;;;;;;;5032921;28;20211;-61
2024/01/26 05:35:06;;;;;;;285.83;110.57;;;;;;;;;;5030926;28;20192;-61
2024/01/26 05:37:32;;;;;;;298.97;115.53;;;;;;;;;;5027860;28;20282;-61
2024/01/26 05:39:58;;;;;;;356.93;133.10;;;;;;;;;;5028083;28;20286;-61
2024/01/26 05:42:24;;;;;;;352.03;130.50;;;;;;;;;;5030145;28;20662;-61
2024/01/26 05:44:50;;;;;;;382.27;138.30;;;;;;;;;;5031075;28;20183;-61
2024/01/26 05:47:18;;;;;;;297.47;111.97;;;;;;;;;;5014430;28;20218;-61
2024/01/26 05:49:44;;;;;;;358.63;130.80;;;;;;;;;;5027119;28;20191;-61
2024/01/26 05:52:10;;;;;;;334.90;121.33;;;;;;;;;;5028837;28;20187;-61
2024/01/26 05:54:36;;;;;;;334.70;127.23;;;;;;;;;;5027244;28;20210;-61
2024/01/26 05:57:01;;;;;;;330.03;121.63;;;;;;;;;;5030212;28;20701;-61
2024/01/26 05:59:27;;;;;;;319.97;124.87;;;;;;;;;;5026219;28;20194;-61
2024/01/26 06:01:53;;;;;;;302.63;115.23;;;;;;;;;;5028881;28;20290;-61
2024/01/26 06:04:19;;;;;;;323.03;119.10;;;;;;;;;;5026535;28;20639;-61
2024/01/26 06:06:45;;;;;;;316.40;112.20;;;;;;;;;;5022646;28;20188;-62
2024/01/26 06:09:11;;;;;;;318.37;115.77;;;;;;;;;;5031525;28;20198;-62
2024/01/26 06:11:37;;;;;;;324.67;119.67;;;;;;;;;;5023261;28;20196;-62
2024/01/26 06:14:03;;;;;;;317.03;117.50;;;;;;;;;;5030980;28;20207;-62
2024/01/26 06:16:29;;;;;;;318.73;123.07;;;;;;;;;;5021314;28;20187;-62
2024/01/26 06:18:55;;;;;;;262.50;105.73;;;;;;;;;;5029643;28;20215;-62
2024/01/26 06:21:21;;;;;;;431.17;160.63;;;;;;;;;;4988749;28;20234;-62
2024/01/26 06:23:47;;;;;;;284.73;110.17;;;;;;;;;;5026686;28;20200;-62
2024/01/26 06:26:13;;;;;;;330.17;124.37;;;;;;;;;;5024611;28;23004;-62
2024/01/26 06:28:40;;;;;;;347.87;132.83;;;;;;;;;;5026610;28;20242;-61
2024/01/26 06:31:06;;;;;;;447.00;159.87;;;;;;;;;;5018958;28;20315;-61
2024/01/26 06:33:32;;;;;;;333.20;126.50;;;;;;;;;;5018671;28;20213;-61
2024/01/26 06:35:58;;;;;;;298.07;113.60;;;;;;;;;;5029495;28;20538;-62
2024/01/26 06:38:24;;;;;;;344.03;128.13;;;;;;;;;;5027727;28;20235;-64
2024/01/26 06:40:51;;;;;;;325.07;118.47;;;;;;;;;;5027571;28;20230;-66
2024/01/26 06:43:19;;;;;;;339.93;125.20;;;;;;;;;;5020113;28;20199;-63
2024/01/26 06:45:45;;;;;;;353.47;129.70;;;;;;;;;;5021297;28;20590;-63
2024/01/26 06:48:11;;;;;;;321.30;122.27;;;;;;;;;;5027582;28;20192;-63
2024/01/26 06:50:38;;;;;;;314.50;122.97;;;;;;;;;;5026535;28;20192;-63
2024/01/26 06:53:04;;;;;;;280.67;110.70;;;;;;;;;;5028033;28;20199;-63
2024/01/26 06:55:30;;;;;;;347.83;124.67;;;;;;;;;;5027184;28;20183;-62
2024/01/26 06:57:56;;;;;;;298.20;116.67;;;;;;;;;;5032832;28;20257;-62
2024/01/26 07:00:22;;;;;;;382.17;135.17;;;;;;;;;;5025390;28;20188;-62
2024/01/26 07:02:48;;;;;;;352.07;128.07;;;;;;;;;;5022237;28;20286;-63
2024/01/26 07:05:14;;;;;;;343.40;123.53;;;;;;;;;;5019135;28;20288;-64
2024/01/26 07:07:40;;;;;;;376.10;137.60;;;;;;;;;;5017897;28;20378;-64
2024/01/26 07:10:07;;;;;;;336.40;121.87;;;;;;;;;;5006622;28;20926;-63
2024/01/26 07:12:32;;;;;;;353.93;132.23;;;;;;;;;;5019046;28;20302;-63
2024/01/26 07:14:58;;;;;;;380.20;137.93;;;;;;;;;;5016884;28;20314;-63
2024/01/26 07:17:24;;;;;;;314.00;114.23;;;;;;;;;;5029749;28;20204;-64
2024/01/26 07:19:50;;;;;;;306.40;116.77;;;;;;;;;;5025706;28;20192;-63
2024/01/26 07:22:16;;;;;;;363.07;132.23;;;;;;;;;;5019423;28;21226;-64
2024/01/26 07:24:42;;;;;;;282.50;112.17;;;;;;;;;;5025994;28;20183;-57
2024/01/26 07:27:08;;;;;;;295.73;115.57;;;;;;;;;;5042432;28;20188;-57
2024/01/26 07:29:35;;;;;;;272.17;104.43;;;;;;;;;;5041281;28;20180;-57
2024/01/26 07:32:01;;;;;;;306.07;114.80;;;;;;;;;;5032543;28;20275;-63
2024/01/26 07:34:27;;;;;;;333.00;125.53;;;;;;;;;;5028001;28;20208;-63
2024/01/26 07:36:53;;;;;;;272.17;102.80;;;;;;;;;;5026120;28;20589;-63
2024/01/26 07:39:21;;;;;;;342.47;123.47;;;;;;;;;;5023913;28;20258;-63
2024/01/26 07:41:47;;;;;;;337.67;122.50;;;;;;;;;;5023618;28;20192;-63
2024/01/26 07:44:13;;;;;;;323.73;120.10;;;;;;;;;;5021728;28;20547;-63
2024/01/26 07:46:41;;;;;;;315.93;118.37;;;;;;;;;;5027807;28;20203;-63
2024/01/26 07:49:07;;;;;;;315.23;115.20;;;;;;;;;;5035662;28;20179;-63
2024/01/26 07:51:33;;;;;;;361.20;130.73;;;;;;;;;;5028699;28;20218;-62
2024/01/26 07:53:59;;;;;;;337.40;125.30;;;;;;;;;;5012589;28;20229;-63
2024/01/26 07:56:25;;;;;;;280.40;109.33;;;;;;;;;;5033439;28;20241;-63
2024/01/26 07:58:51;;;;;;;275.67;108.47;;;;;;;;;;5017959;28;20659;-63
2024/01/26 08:01:17;;;;;;;284.53;108.93;;;;;;;;;;5025509;28;20188;-63
2024/01/26 08:03:43;;;;;;;325.07;123.50;;;;;;;;;;5030101;28;20481;-63
2024/01/26 08:06:09;;;;;;;313.37;119.43;;;;;;;;;;5039467;28;20185;-63
2024/01/26 08:08:35;;;;;;;404.47;152.97;;;;;;;;;;5033000;28;20249;-63
2024/01/26 08:11:01;;;;;;;294.47;110.87;;;;;;;;;;5035424;28;20202;-63
2024/01/26 08:13:27;;;;;;;325.10;121.43;;;;;;;;;;5028131;28;20207;-63
2024/01/26 08:15:54;;;;;;;296.30;113.23;;;;;;;;;;5026205;28;20192;-63
2024/01/26 08:18:20;;;;;;;283.67;110.10;;;;;;;;;;5027740;28;20224;-63
2024/01/26 08:20:46;;;;;;;319.33;123.00;;;;;;;;;;5015665;28;20270;-64
2024/01/26 08:23:12;;;;;;;358.53;132.27;;;;;;;;;;5023600;28;20313;-63
2024/01/26 08:25:38;;;;;;;329.23;121.83;;;;;;;;;;5028130;28;20274;-63
2024/01/26 08:28:04;;;;;;;282.53;108.17;;;;;;;;;;5027482;28;20196;-63
2024/01/26 08:30:30;;;;;;;298.70;112.77;;;;;;;;;;5025857;28;20180;-63
2024/01/26 08:32:56;;;;;;;296.27;112.70;;;;;;;;;;5020327;28;20481;-63
2024/01/26 08:35:22;;;;;;;360.87;132.83;;;;;;;;;;5024033;28;20183;-63
2024/01/26 08:37:48;;;;;;;323.57;122.83;;;;;;;;;;5030153;28;20329;-63
2024/01/26 08:40:14;;;;;;;268.27;104.10;;;;;;;;;;5029403;28;20179;-63
2024/01/26 08:42:40;;;;;;;292.07;112.90;;;;;;;;;;5032221;28;20211;-63
2024/01/26 08:45:08;;;;;;;316.00;120.93;;;;;;;;;;5027923;28;20786;-63
2024/01/26 08:47:34;;;;;;;315.63;120.30;;;;;;;;;;5028351;28;20183;-63
2024/01/26 08:50:00;;;;;;;320.27;120.63;;;;;;;;;;5031367;28;20186;-63
2024/01/26 08:52:26;;;;;;;311.80;117.90;;;;;;;;;;5022610;28;20199;-63
2024/01/26 08:54:51;;;;;;;272.67;108.07;;;;;;;;;;5029036;28;20276;-63
2024/01/26 08:57:17;;;;;;;329.73;122.00;;;;;;;;;;5030689;28;20234;-63
2024/01/26 08:59:44;;;;;;;324.83;128.70;;;;;;;;;;5027945;28;20238;-63
2024/01/26 09:02:10;;;;;;;306.73;118.90;;;;;;;;;;5028911;28;20510;-63
2024/01/26 09:04:37;;;;;;;384.37;138.23;;;;;;;;;;5024640;28;20282;-63
2024/01/26 09:07:03;;;;;;;328.33;119.47;;;;;;;;;;5031553;28;20234;-64
2024/01/26 09:09:29;;;;;;;313.27;116.00;;;;;;;;;;5022909;28;20261;-64
2024/01/26 09:11:55;;;;;;;305.60;115.63;;;;;;;;;;5022473;28;20187;-64
2024/01/26 09:14:22;;;;;;;332.07;125.07;;;;;;;;;;5035321;28;20308;-63
2024/01/26 09:16:51;;;;;;;322.97;121.77;;;;;;;;;;5026117;28;20738;-64
2024/01/26 09:19:17;;;;;;;415.47;150.73;;;;;;;;;;5017446;28;20471;-64
2024/01/26 09:21:43;;;;;;;307.57;121.10;;;;;;;;;;5022592;28;20211;-63
2024/01/26 09:24:09;;;;;;;328.97;123.97;;;;;;;;;;5030435;28;20662;-63
2024/01/26 09:26:36;;;;;;;300.93;114.77;;;;;;;;;;5026378;28;20273;-63
2024/01/26 09:29:02;;;;;;;359.30;131.83;;;;;;;;;;5007252;28;20674;-64
2024/01/26 09:31:28;;;;;;;363.97;132.03;;;;;;;;;;5022389;28;20305;-63
2024/01/26 09:33:53;;;;;;;333.47;126.43;;;;;;;;;;5028584;28;20207;-63
2024/01/26 09:36:19;;;;;;;313.93;122.20;;;;;;;;;;5015267;28;20194;-63
2024/01/26 09:38:45;;;;;;;332.77;124.63;;;;;;;;;;5028964;28;20728;-64
2024/01/26 09:41:11;;;;;;;323.17;123.37;;;;;;;;;;5026341;28;20258;-63
2024/01/26 09:43:37;;;;;;;309.93;119.73;;;;;;;;;;5034505;28;20204;-64
2024/01/26 09:46:05;;;;;;;337.63;129.20;;;;;;;;;;5026963;28;20307;-64
2024/01/26 09:48:32;;;;;;;351.23;132.27;;;;;;;;;;5028001;28;20196;-63
2024/01/26 09:50:58;;;;;;;318.50;122.67;;;;;;;;;;5028667;28;20188;-64
2024/01/26 09:53:24;;;;;;;332.20;126.20;;;;;;;;;;5023807;28;20341;-63
2024/01/26 09:55:51;;;;;;;355.63;135.87;;;;;;;;;;5025907;28;20274;-64
2024/01/26 09:58:17;;;;;;;334.43;124.53;;;;;;;;;;5030215;28;20210;-64
2024/01/26 10:00:46;;;;;;;373.43;140.60;;;;;;;;;;5034020;28;20675;-64
2024/01/26 10:03:15;;;;;;;388.80;142.93;;;;;;;;;;5027566;28;20204;-64
2024/01/26 10:05:41;;;;;;;454.00;166.83;;;;;;;;;;5020236;28;20669;-64
2024/01/26 10:08:08;;;;;;;396.00;146.30;;;;;;;;;;5026763;28;20189;-64
2024/01/26 10:10:34;;;;;;;431.00;159.33;;;;;;;;;;5033859;28;20252;-63
2024/01/26 10:13:00;;;;;;;393.83;152.20;;;;;;;;;;5034170;28;20238;-64
2024/01/26 10:15:26;;;;;;;418.83;166.93;;;;;;;;;;5026545;28;20189;-63
2024/01/26 10:17:53;;;;;;;460.17;177.83;;;;;;;;;;5030508;28;20332;-64
2024/01/26 10:20:20;;;;;;;404.87;154.23;;;;;;;;;;5013560;28;20554;-64
2024/01/26 10:22:46;;;;;;;444.50;162.43;;;;;;;;;;5030238;28;20227;-63
2024/01/26 10:28:50;;;;;;;430.73;158.60;;;;;;;;;;5113170;27;20573;-63
2024/01/26 10:31:16;;;;;;;427.80;155.70;;;;;;;;;;5096941;28;20640;-62
2024/01/26 10:33:45;;;;;;;473.37;177.77;;;;;;;;;;5088325;28;20303;-62
2024/01/26 10:36:13;;;;;;;438.90;163.27;;;;;;;;;;5084160;28;20185;-63
2024/01/26 10:38:39;;;;;;;406.13;151.73;;;;;;;;;;5079347;28;20667;-62
2024/01/26 10:41:05;;;;;;;395.33;149.10;;;;;;;;;;5085995;28;20177;-62
2024/01/26 10:43:32;;;;;;;418.37;153.23;;;;;;;;;;5088844;28;20251;-63
2024/01/26 10:46:01;;;;;;;409.50;151.10;;;;;;;;;;5087088;28;20178;-63
2024/01/26 10:48:27;;;;;;;399.90;150.60;;;;;;;;;;5082620;28;20181;-63
2024/01/26 10:50:54;;;;;;;441.03;169.13;;;;;;;;;;5082460;28;20311;-63
2024/01/26 10:53:21;;;;;;;423.03;157.07;;;;;;;;;;5089205;28;20278;-62
2024/01/26 10:55:49;;;;;;;435.07;163.47;;;;;;;;;;5086063;28;20193;-63
2024/01/26 10:58:15;;;;;;;406.13;153.07;;;;;;;;;;5079003;28;20672;-63
2024/01/26 11:00:41;;;;;;;412.17;159.17;;;;;;;;;;5069683;28;20191;-63
2024/01/26 11:03:09;;;;;;;417.67;164.23;;;;;;;;;;5074038;28;20210;-63
2024/01/26 11:05:35;;;;;;;432.73;171.43;;;;;;;;;;5065609;28;20182;-63
2024/01/26 11:08:02;;;;;;;404.87;153.83;;;;;;;;;;5080247;28;20206;-63
2024/01/26 11:10:30;;;;;;;395.33;151.90;;;;;;;;;;5088470;28;20182;-63
2024/01/26 11:13:03;;;;;;;418.67;161.93;;;;;;;;;;5085161;28;20614;-63
2024/01/26 11:16:00;;;;;;;403.33;154.30;;;;;;;;;;5079625;28;20190;-64
2024/01/26 11:18:26;;;;;;;472.63;181.10;;;;;;;;;;5067755;28;20407;-63
2024/01/26 11:20:52;;;;;;;447.87;166.87;;;;;;;;;;5066070;28;20458;-64
2024/01/26 11:23:18;;;;;;;403.90;155.40;;;;;;;;;;5072394;28;20217;-64
2024/01/26 11:25:45;;;;;;;420.70;159.40;;;;;;;;;;5071641;28;20696;-62
2024/01/26 11:28:12;;;;;;;483.73;187.63;;;;;;;;;;5057710;28;20213;-64
2024/01/26 11:30:39;;;;;;;370.13;146.73;;;;;;;;;;5063318;28;20254;-64
2024/01/26 11:33:21;;;;;;;418.53;159.13;;;;;;;;;;5070158;28;20287;-65
2024/01/26 11:35:47;;;;;;;458.13;179.47;;;;;;;;;;5069914;28;20641;-63
2024/01/26 11:44:19;;;;;;;426.67;162.43;;;;;;;;;;5066769;27;20920;-62
2024/01/26 11:46:45;;;;;;;388.00;147.73;;;;;;;;;;5025041;28;20672;-61
2024/01/26 11:49:11;;;;;;;423.37;154.23;;;;;;;;;;5038640;28;20833;-61
2024/01/26 12:11:54;;;;;;;528.60;222.13;;;;;;;;;;5015859;27;1877862;-61
2024/01/26 12:14:20;;;;;;;397.60;161.33;;;;;;;;;;5037478;28;20218;-61
2024/01/26 12:16:46;;;;;;;447.13;181.97;;;;;;;;;;5046450;28;20274;-61
2024/01/26 12:19:12;;;;;;;462.50;183.40;;;;;;;;;;5034322;28;20186;-59
2024/01/26 12:21:38;;;;;;;363.70;143.53;;;;;;;;;;5046067;28;20245;-59
2024/01/26 12:24:13;;;;;;;426.23;179.43;;;;;;;;;;5046380;28;20556;-60
2024/01/26 12:26:39;;;;;;;385.83;158.00;;;;;;;;;;5026918;28;20175;-61
2024/01/26 12:29:06;;;;;;;374.43;160.03;;;;;;;;;;5042764;28;20668;-60
2024/01/26 12:31:33;;;;;;;326.70;140.50;;;;;;;;;;5044067;28;20187;-61
2024/01/26 12:34:01;;;;;;;363.00;152.43;;;;;;;;;;5038728;28;20208;-60
2024/01/26 12:36:33;;;;;;;388.90;162.37;;;;;;;;;;5045519;28;20195;-61
2024/01/26 12:39:00;;;;;;;388.70;166.87;;;;;;;;;;5047256;28;20258;-61
2024/01/26 12:41:27;;;;;;;311.90;134.93;;;;;;;;;;5047573;28;20213;-61
2024/01/26 12:43:53;;;;;;;345.63;147.30;;;;;;;;;;5049979;28;20206;-61
2024/01/26 12:46:20;;;;;;;342.47;141.97;;;;;;;;;;5048001;28;20187;-61
2024/01/26 12:48:45;;;;;;;332.27;141.53;;;;;;;;;;5054886;28;20191;-61
2024/01/26 12:51:12;;;;;;;338.87;142.37;;;;;;;;;;5051011;28;20262;-61
2024/01/26 12:53:38;;;;;;;320.93;134.43;;;;;;;;;;5040953;28;20208;-61
2024/01/26 12:56:04;;;;;;;376.83;154.57;;;;;;;;;;5043575;28;20179;-61
2024/01/26 12:58:30;;;;;;;354.47;149.83;;;;;;;;;;5055692;28;20532;-61
2024/01/26 13:00:56;;;;;;;335.27;140.93;;;;;;;;;;5047812;28;20219;-61
2024/01/26 13:03:24;;;;;;;326.37;137.33;;;;;;;;;;5050642;28;20769;-61
2024/01/26 13:05:51;;;;;;;387.83;159.83;;;;;;;;;;5041741;28;20421;-61
2024/01/26 13:08:18;;;;;;;369.50;153.20;;;;;;;;;;5044658;28;20274;-61
2024/01/26 13:10:45;;;;;;;294.77;127.93;;;;;;;;;;5047761;28;20619;-61
2024/01/26 13:13:11;;;;;;;323.33;137.03;;;;;;;;;;5052396;28;20665;-61
2024/01/26 13:15:38;;;;;;;325.40;140.20;;;;;;;;;;5047180;28;20190;-61
2024/01/26 13:18:04;;;;;;;363.00;154.87;;;;;;;;;;5041200;28;20187;-61
2024/01/26 13:20:30;;;;;;;317.23;138.77;;;;;;;;;;5043914;28;20214;-61
2024/01/26 13:22:56;;;;;;;342.77;144.93;;;;;;;;;;5027262;28;20303;-61
2024/01/26 13:25:22;;;;;;;320.80;140.43;;;;;;;;;;5034561;28;20191;-61
2024/01/26 13:27:48;;;;;;;382.73;161.80;;;;;;;;;;5029537;28;20192;-61
2024/01/26 13:30:14;;;;;;;314.73;132.83;;;;;;;;;;5024513;28;20192;-61
2024/01/26 13:32:43;;;;;;;347.77;140.17;;;;;;;;;;5030891;28;20207;-61
2024/01/26 13:35:09;;;;;;;364.97;146.80;;;;;;;;;;5031004;28;20179;-61
2024/01/26 13:37:35;;;;;;;335.13;132.97;;;;;;;;;;5036224;28;20188;-61
2024/01/26 13:40:04;;;;;;;415.80;167.27;;;;;;;;;;5033677;28;20769;-60
2024/01/26 13:42:31;;;;;;;334.97;136.13;;;;;;;;;;5034018;28;20269;-61
2024/01/26 13:44:57;;;;;;;396.70;160.90;;;;;;;;;;5028894;28;20530;-61
2024/01/26 13:47:23;;;;;;;441.60;176.17;;;;;;;;;;5027300;28;20573;-61
2024/01/26 13:49:52;;;;;;;374.13;149.43;;;;;;;;;;5028126;28;20269;-61
2024/01/26 13:52:18;;;;;;;393.83;158.37;;;;;;;;;;5028316;28;20207;-61
2024/01/26 13:54:44;;;;;;;353.27;141.47;;;;;;;;;;5035540;28;20222;-61
2024/01/26 13:57:11;;;;;;;385.77;156.87;;;;;;;;;;5032342;28;20270;-61
2024/01/26 13:59:37;;;;;;;455.03;186.27;;;;;;;;;;5032212;28;20179;-63
2024/01/26 14:02:03;;;;;;;389.03;157.23;;;;;;;;;;5030874;28;20191;-61
2024/01/26 14:04:29;;;;;;;358.10;145.83;;;;;;;;;;5031889;28;20574;-60
2024/01/26 14:06:56;;;;;;;402.23;160.00;;;;;;;;;;5033891;28;20184;-60
2024/01/26 14:09:22;;;;;;;375.13;146.77;;;;;;;;;;5036053;28;20191;-60
2024/01/26 14:11:48;;;;;;;341.70;140.13;;;;;;;;;;5035283;28;20203;-60
2024/01/26 14:14:14;;;;;;;329.83;134.03;;;;;;;;;;5041637;28;20629;-60
2024/01/26 14:16:40;;;;;;;355.77;142.53;;;;;;;;;;5032664;28;20506;-60